Aviation Digital Data Service (ADDS)

Output produced by METARs form (0244 UTC 24 July 2017)
found at http://www.aviationweather.gov/adds/metars/
 
GBYD 240200Z VRB02KT 9999 SCT011 25/23 Q1013
TAF GBYD 232330Z 2400/2506 27008KT 9999 SCT013